Time;durP1;ratioP1;P1;durP2;ratioP2;P2;SDS_P1;SDS_P2;PMS_P1;PMS_P2;Temp;Humidity;BMP_temperature;BMP_pressure;BME280_temperature;BME280_humidity;BME280_pressure;Samples;Min_cycle;Max_cycle;Signal;HPM_P1;HPM_P2
2023/07/28 00:02:02;;;;;;;4.93;1.98;;;;;;;21.81;53.95;97702.50;4365852;32;20186;-80
2023/07/28 00:04:29;;;;;;;5.12;1.83;;;;;;;21.67;54.24;97699.34;4365449;32;20094;-80
2023/07/28 00:06:56;;;;;;;5.57;1.80;;;;;;;21.31;54.42;97690.47;4365690;32;20165;-80
2023/07/28 00:09:23;;;;;;;3.92;1.80;;;;;;;21.41;54.30;97698.31;4365620;32;20083;-80
2023/07/28 00:11:50;;;;;;;3.55;1.80;;;;;;;21.64;53.71;97698.81;4365503;32;20158;-80
2023/07/28 00:14:17;;;;;;;3.12;1.62;;;;;;;21.58;54.00;97699.34;4365733;32;20083;-80
2023/07/28 00:16:44;;;;;;;4.07;1.90;;;;;;;21.63;53.56;97702.41;4364594;32;20091;-80
2023/07/28 00:19:11;;;;;;;7.10;2.30;;;;;;;21.64;53.13;97699.63;4365259;32;20103;-80
2023/07/28 00:21:38;;;;;;;3.85;1.80;;;;;;;21.58;53.64;97694.94;4365784;32;20092;-80
2023/07/28 00:24:05;;;;;;;4.65;1.77;;;;;;;21.75;52.97;97697.81;4365679;32;20087;-80
2023/07/28 00:26:32;;;;;;;2.95;1.60;;;;;;;21.59;53.46;97682.66;4365324;32;20087;-80
2023/07/28 00:28:59;;;;;;;4.75;1.90;;;;;;;21.52;53.67;97679.78;4365532;32;20121;-80
2023/07/28 00:31:26;;;;;;;3.60;1.70;;;;;;;21.75;52.28;97682.88;4365634;32;20158;-80
2023/07/28 00:33:53;;;;;;;4.00;1.67;;;;;;;21.76;52.14;97679.28;4365331;32;20162;-80
2023/07/28 00:36:20;;;;;;;3.78;1.52;;;;;;;21.50;52.62;97688.78;4365532;32;20504;-80
2023/07/28 00:38:47;;;;;;;4.00;1.80;;;;;;;21.49;52.56;97687.94;4365572;32;20157;-80
2023/07/28 00:41:14;;;;;;;4.70;1.85;;;;;;;21.34;53.20;97684.09;4365336;32;20760;-80
2023/07/28 00:43:41;;;;;;;4.82;2.10;;;;;;;21.31;53.59;97679.13;4365580;32;20099;-80
2023/07/28 00:46:09;;;;;;;3.20;1.60;;;;;;;21.18;54.16;97681.22;4365211;32;20150;-80
2023/07/28 00:48:36;;;;;;;3.60;1.73;;;;;;;21.25;54.30;97679.66;4364179;32;20078;-80
2023/07/28 00:51:03;;;;;;;3.20;1.67;;;;;;;21.01;54.78;97685.38;4365501;32;20134;-80
2023/07/28 00:53:30;;;;;;;4.28;1.83;;;;;;;20.71;56.04;97668.81;4365170;32;20473;-80
2023/07/28 00:55:57;;;;;;;4.32;1.75;;;;;;;21.00;54.76;97674.03;4364026;32;20117;-80
2023/07/28 00:58:24;;;;;;;4.43;1.80;;;;;;;21.17;54.60;97674.31;4365311;32;20396;-80
2023/07/28 01:00:51;;;;;;;4.62;1.92;;;;;;;21.31;54.68;97669.47;4364056;32;20174;-80
2023/07/28 01:03:19;;;;;;;6.55;2.30;;;;;;;21.30;55.20;97674.88;4364592;32;20469;-80
2023/07/28 01:05:52;;;;;;;5.62;1.90;;;;;;;21.27;55.25;97668.13;4365279;32;20083;-80
2023/07/28 01:08:28;;;;;;;5.37;2.08;;;;;;;21.03;56.02;97657.19;4364861;32;20150;-80
2023/07/28 01:10:55;;;;;;;5.03;2.00;;;;;;;21.31;55.44;97666.03;4364231;32;20166;-80
2023/07/28 01:13:22;;;;;;;5.55;1.80;;;;;;;21.29;55.89;97662.72;4365390;32;20263;-80
2023/07/28 01:15:49;;;;;;;7.72;2.75;;;;;;;21.39;55.62;97657.44;4364957;32;20109;-80
2023/07/28 01:18:16;;;;;;;4.12;2.03;;;;;;;21.24;55.90;97651.78;4365252;32;20078;-80
2023/07/28 01:20:47;;;;;;;5.12;1.90;;;;;;;21.25;56.26;97656.03;4364010;32;20162;-80
2023/07/28 01:23:38;;;;;;;4.55;1.90;;;;;;;20.70;57.64;97650.59;4365104;32;20481;-80
2023/07/28 01:26:09;;;;;;;4.53;2.10;;;;;;;20.49;58.85;97646.31;4364167;32;20174;-80
2023/07/28 01:28:37;;;;;;;6.12;2.20;;;;;;;20.65;58.45;97644.97;4363594;32;20483;-80
2023/07/28 01:31:06;;;;;;;3.80;1.73;;;;;;;20.84;57.62;97647.56;4364097;32;20162;-80
2023/07/28 01:33:34;;;;;;;4.43;1.95;;;;;;;20.65;57.97;97647.56;4365143;32;20161;-80
2023/07/28 01:36:01;;;;;;;3.87;1.90;;;;;;;20.77;57.84;97641.22;4364734;32;20105;-80
2023/07/28 01:38:28;;;;;;;4.45;1.70;;;;;;;21.04;57.13;97643.09;4365114;32;20476;-80
2023/07/28 01:40:55;;;;;;;6.65;2.08;;;;;;;21.23;56.41;97640.44;4365169;32;20222;-80
2023/07/28 01:43:22;;;;;;;6.10;2.10;;;;;;;21.07;56.54;97634.97;4364862;32;20101;-80
2023/07/28 01:45:49;;;;;;;5.00;2.10;;;;;;;20.82;57.99;97643.41;4364933;32;20091;-80
2023/07/28 01:48:16;;;;;;;4.03;1.80;;;;;;;20.59;59.22;97638.47;4364911;32;20071;-80
2023/07/28 01:50:43;;;;;;;4.60;1.90;;;;;;;20.56;59.36;97641.38;4364866;32;20102;-80
2023/07/28 01:53:10;;;;;;;4.05;1.77;;;;;;;20.53;58.95;97636.41;4365047;32;20152;-80
2023/07/28 01:55:37;;;;;;;3.33;1.80;;;;;;;20.80;58.10;97627.81;4364805;32;20395;-80
2023/07/28 01:58:04;;;;;;;5.65;1.75;;;;;;;20.57;58.14;97626.47;4364672;32;20149;-80
2023/07/28 02:00:31;;;;;;;4.82;1.98;;;;;;;20.57;58.89;97635.16;4365145;32;20133;-80
2023/07/28 02:03:01;;;;;;;7.37;1.90;;;;;;;20.92;57.98;97633.75;4365075;32;20408;-80
2023/07/28 02:05:29;;;;;;;4.53;2.00;;;;;;;21.24;56.94;97636.03;4364701;32;20091;-80
2023/07/28 02:07:56;;;;;;;6.28;1.90;;;;;;;21.36;56.59;97635.75;4364766;32;20104;-80
2023/07/28 02:10:23;;;;;;;4.10;1.80;;;;;;;20.94;57.81;97632.63;4364690;32;20103;-80
2023/07/28 02:12:51;;;;;;;5.30;1.60;;;;;;;20.82;58.16;97636.38;4365039;32;20367;-80
2023/07/28 02:15:18;;;;;;;4.78;2.00;;;;;;;21.30;56.97;97641.56;4364711;32;20495;-80
2023/07/28 02:17:45;;;;;;;4.07;1.85;;;;;;;21.12;57.19;97638.00;4364481;32;20125;-80
2023/07/28 02:20:12;;;;;;;3.40;1.60;;;;;;;21.00;57.75;97641.75;4363861;32;20122;-80
2023/07/28 02:22:40;;;;;;;4.93;2.03;;;;;;;21.45;56.53;97646.34;4364906;32;20107;-80
2023/07/28 02:25:07;;;;;;;4.87;1.92;;;;;;;21.46;55.64;97638.34;4364515;32;20122;-80
2023/07/28 02:27:34;;;;;;;4.47;1.87;;;;;;;21.49;55.81;97643.31;4363501;32;20480;-80
2023/07/28 02:30:01;;;;;;;5.57;2.05;;;;;;;21.26;56.08;97645.44;4364798;32;20163;-80
2023/07/28 02:32:28;;;;;;;4.18;1.85;;;;;;;21.42;55.35;97633.53;4364514;32;20095;-80
2023/07/28 02:34:56;;;;;;;3.72;1.75;;;;;;;21.16;56.31;97634.12;4364642;32;20105;-80
2023/07/28 02:37:24;;;;;;;5.40;2.22;;;;;;;21.56;55.19;97636.50;4364631;32;20082;-80
2023/07/28 02:39:51;;;;;;;5.05;1.70;;;;;;;21.51;55.64;97646.63;4364428;32;20158;-80
2023/07/28 02:42:18;;;;;;;4.22;1.80;;;;;;;21.22;57.17;97648.47;4364734;32;20099;-80
2023/07/28 02:44:45;;;;;;;4.75;1.70;;;;;;;21.57;56.46;97651.28;4363443;32;20105;-80
2023/07/28 02:47:12;;;;;;;4.72;1.92;;;;;;;21.51;56.55;97656.31;4364096;32;20166;-80
2023/07/28 02:49:41;;;;;;;4.87;1.85;;;;;;;20.89;58.55;97642.72;4364547;32;20138;-80
2023/07/28 02:52:08;;;;;;;3.83;1.80;;;;;;;21.48;56.65;97636.41;4364711;32;20109;-80
2023/07/28 02:54:34;;;;;;;3.70;1.87;;;;;;;21.94;54.45;97640.75;4364200;32;20087;-80
2023/07/28 02:57:02;;;;;;;4.78;1.90;;;;;;;21.79;55.09;97642.22;4364243;32;20163;-80
2023/07/28 02:59:29;;;;;;;7.47;2.15;;;;;;;22.32;52.82;97640.69;4356446;32;246474;-80
2023/07/28 03:01:57;;;;;;;4.45;1.80;;;;;;;22.44;52.10;97623.75;4364428;32;20113;-80
2023/07/28 03:04:24;;;;;;;5.25;1.90;;;;;;;22.35;52.27;97628.09;4364314;32;20367;-80
2023/07/28 03:06:51;;;;;;;3.03;1.67;;;;;;;22.83;50.92;97618.97;4364037;32;20109;-80
2023/07/28 03:09:18;;;;;;;5.62;1.85;;;;;;;22.55;51.59;97626.16;4364167;32;20116;-80
2023/07/28 03:11:45;;;;;;;4.45;1.87;;;;;;;22.19;52.50;97623.50;4364316;32;20146;-80
2023/07/28 03:14:12;;;;;;;3.40;1.77;;;;;;;22.47;51.96;97613.75;4363825;32;20142;-80
2023/07/28 03:16:41;;;;;;;4.10;1.90;;;;;;;22.30;52.64;97608.50;4364249;32;20083;-80
2023/07/28 03:19:08;;;;;;;5.80;2.00;;;;;;;22.90;51.02;97606.09;4364134;32;20105;-80
2023/07/28 03:21:35;;;;;;;4.03;1.77;;;;;;;22.92;50.27;97612.84;4363869;32;20158;-80
2023/07/28 03:24:05;;;;;;;3.87;1.75;;;;;;;22.15;52.81;97629.22;4364256;32;20087;-81
2023/07/28 03:26:32;;;;;;;4.70;1.90;;;;;;;21.61;54.56;97636.09;4364906;32;20147;-80
2023/07/28 03:29:00;;;;;;;5.35;2.50;;;;;;;22.44;52.56;97632.47;4365558;32;20174;-80
2023/07/28 03:31:27;;;;;;;3.83;2.05;;;;;;;22.77;51.60;97638.00;4366178;32;20110;-81
2023/07/28 03:33:54;;;;;;;6.47;2.22;;;;;;;23.42;49.87;97643.75;4366063;32;20227;-81
2023/07/28 03:36:21;;;;;;;6.28;2.05;;;;;;;23.03;50.88;97641.53;4365602;32;20101;-81
2023/07/28 03:38:48;;;;;;;4.97;2.00;;;;;;;22.58;51.55;97638.16;4365843;32;20162;-81
2023/07/28 03:41:15;;;;;;;5.03;2.10;;;;;;;23.16;50.53;97645.56;4366030;32;20113;-81
2023/07/28 03:43:41;;;;;;;5.82;1.87;;;;;;;23.22;50.17;97645.78;4364439;32;20094;-81
2023/07/28 03:46:09;;;;;;;6.62;1.87;;;;;;;23.74;48.06;97653.66;4365823;32;20158;-81
2023/07/28 03:48:36;;;;;;;4.40;2.12;;;;;;;23.89;48.19;97657.34;4365245;32;20113;-80
2023/07/28 03:51:03;;;;;;;3.67;2.00;;;;;;;24.09;47.92;97662.38;4366014;32;20139;-81
2023/07/28 03:53:30;;;;;;;4.60;1.98;;;;;;;23.42;49.50;97651.66;4365890;32;20107;-81
2023/07/28 03:55:58;;;;;;;3.90;2.00;;;;;;;23.75;48.86;97657.12;4365229;32;20121;-80
2023/07/28 03:58:25;;;;;;;4.90;1.95;;;;;;;24.23;47.74;97656.47;4365697;32;20103;-80
2023/07/28 04:00:53;;;;;;;4.43;2.03;;;;;;;23.69;48.96;97640.13;4364778;32;20102;-81
2023/07/28 04:03:20;;;;;;;5.90;2.28;;;;;;;23.84;48.96;97643.84;4365476;32;20099;-80
2023/07/28 04:05:47;;;;;;;4.68;2.00;;;;;;;24.53;47.30;97649.81;4364607;32;20105;-80
2023/07/28 04:08:14;;;;;;;5.03;2.08;;;;;;;23.98;48.82;97647.66;4365568;32;20189;-80
2023/07/28 04:10:41;;;;;;;5.70;2.08;;;;;;;23.89;48.78;97644.16;4365516;32;20086;-81
2023/07/28 04:13:08;;;;;;;4.47;2.00;;;;;;;23.44;49.57;97636.53;4365726;32;20403;-81
2023/07/28 04:15:35;;;;;;;4.37;2.00;;;;;;;24.63;46.61;97629.38;4364525;32;20099;-81
2023/07/28 04:18:02;;;;;;;2.80;1.60;;;;;;;24.67;46.75;97624.59;4365256;32;20166;-81
2023/07/28 04:20:30;;;;;;;3.83;1.90;;;;;;;24.67;46.58;97620.16;4364627;32;20474;-81
2023/07/28 04:22:56;;;;;;;4.55;1.85;;;;;;;24.70;46.11;97622.47;4365752;32;20091;-80
2023/07/28 04:25:23;;;;;;;5.85;2.10;;;;;;;24.58;47.49;97615.87;4365323;32;20074;-81
2023/07/28 04:27:50;;;;;;;5.20;2.05;;;;;;;24.77;47.44;97622.63;4365431;32;20450;-81
2023/07/28 04:30:17;;;;;;;7.05;1.80;;;;;;;24.91;46.02;97624.63;4365830;32;20099;-81
2023/07/28 04:32:44;;;;;;;4.10;1.90;;;;;;;25.59;44.15;97620.72;4365174;32;20174;-80
2023/07/28 04:35:12;;;;;;;5.65;2.05;;;;;;;24.75;46.07;97627.25;4365614;32;20091;-81
2023/07/28 04:37:39;;;;;;;5.53;2.08;;;;;;;24.90;45.81;97617.69;4363006;32;20159;-80
2023/07/28 04:40:08;;;;;;;4.00;1.90;;;;;;;24.59;46.45;97619.34;4365599;32;20091;-81
2023/07/28 04:42:36;;;;;;;4.72;2.12;;;;;;;25.02;45.48;97626.12;4365608;32;20199;-80
2023/07/28 04:45:03;;;;;;;5.07;2.03;;;;;;;24.76;45.85;97628.88;4365151;32;20099;-81
2023/07/28 04:47:30;;;;;;;6.20;2.17;;;;;;;25.01;45.58;97629.72;4364263;32;20158;-80
2023/07/28 04:49:58;;;;;;;4.22;1.80;;;;;;;24.73;46.37;97643.25;4365952;32;20099;-79
2023/07/28 04:52:25;;;;;;;5.35;2.00;;;;;;;24.53;46.72;97649.81;4365190;32;20431;-79
2023/07/28 04:54:52;;;;;;;3.67;1.92;;;;;;;25.01;45.53;97638.50;4368057;32;20097;-81
2023/07/28 04:57:19;;;;;;;5.72;2.25;;;;;;;24.61;46.44;97644.56;4365197;32;20106;-81
2023/07/28 04:59:46;;;;;;;5.00;2.05;;;;;;;24.87;45.69;97652.31;4364986;32;20502;-81
2023/07/28 05:02:13;;;;;;;4.57;2.00;;;;;;;24.83;46.55;97648.34;4365383;32;20087;-80
2023/07/28 05:04:40;;;;;;;4.28;1.95;;;;;;;24.83;46.28;97652.81;4365270;32;20461;-81
2023/07/28 05:07:07;;;;;;;4.40;1.90;;;;;;;24.64;46.63;97648.66;4364014;32;20461;-80
2023/07/28 05:09:34;;;;;;;4.72;1.87;;;;;;;24.67;46.77;97637.78;4365254;32;20143;-81
2023/07/28 05:12:01;;;;;;;4.60;1.90;;;;;;;24.91;46.63;97632.53;4365349;32;20083;-81
2023/07/28 05:14:28;;;;;;;4.25;2.00;;;;;;;24.71;46.56;97632.03;4364971;32;20105;-81
2023/07/28 05:16:54;;;;;;;4.00;1.77;;;;;;;24.40;47.21;97631.00;4365335;32;20137;-81
2023/07/28 05:19:22;;;;;;;4.10;1.92;;;;;;;24.34;48.14;97642.19;4365160;32;20549;-80
2023/07/28 05:21:49;;;;;;;7.03;2.65;;;;;;;24.44;47.35;97641.06;4364952;32;20174;-80
2023/07/28 05:24:16;;;;;;;4.93;2.10;;;;;;;23.96;49.13;97649.66;4365175;32;20101;-81
2023/07/28 05:26:43;;;;;;;4.90;2.17;;;;;;;24.60;47.91;97647.34;4364811;32;20150;-81
2023/07/28 05:29:09;;;;;;;3.55;1.83;;;;;;;24.66;46.92;97652.78;4364932;32;20552;-81
2023/07/28 05:31:36;;;;;;;5.12;2.17;;;;;;;23.85;48.91;97645.47;4365296;32;20153;-80
2023/07/28 05:34:04;;;;;;;3.35;1.77;;;;;;;24.62;47.64;97651.47;4364913;32;20450;-80
2023/07/28 05:36:31;;;;;;;6.20;2.20;;;;;;;24.33;48.35;97664.28;4365087;32;20456;-81
2023/07/28 05:38:58;;;;;;;5.03;1.90;;;;;;;24.35;48.01;97663.16;4365107;32;20095;-81
2023/07/28 05:41:26;;;;;;;5.40;1.98;;;;;;;24.31;48.28;97663.63;4363737;32;20524;-81
2023/07/28 05:43:53;;;;;;;4.43;1.80;;;;;;;24.33;48.70;97665.09;4365163;32;20146;-80
2023/07/28 05:46:20;;;;;;;4.75;1.98;;;;;;;24.34;48.81;97669.37;4365099;32;20494;-81
2023/07/28 05:48:47;;;;;;;4.22;1.98;;;;;;;24.04;49.75;97664.66;4364153;32;20545;-81
2023/07/28 05:51:14;;;;;;;8.18;2.00;;;;;;;23.63;50.41;97664.47;4365183;32;20083;-81
2023/07/28 05:53:41;;;;;;;6.80;2.15;;;;;;;23.89;50.33;97662.63;4365973;32;20071;-80
2023/07/28 05:56:08;;;;;;;4.20;1.90;;;;;;;24.40;49.01;97663.47;4367258;32;20611;-80
2023/07/28 05:58:35;;;;;;;7.22;2.45;;;;;;;23.84;50.14;97659.66;4366584;32;20103;-80
2023/07/28 06:01:02;;;;;;;4.87;2.05;;;;;;;23.99;50.45;97657.22;4365159;32;20087;-80
2023/07/28 06:03:29;;;;;;;6.62;1.90;;;;;;;24.04;50.19;97657.59;4364807;32;20094;-78
2023/07/28 06:05:56;;;;;;;5.30;2.05;;;;;;;23.58;51.72;97661.44;4364951;32;20094;-78
2023/07/28 06:08:23;;;;;;;4.70;1.80;;;;;;;23.56;51.68;97658.97;4364731;32;20163;-78
2023/07/28 06:10:50;;;;;;;6.12;2.10;;;;;;;23.89;51.17;97653.87;4364563;32;20165;-78
2023/07/28 06:13:17;;;;;;;4.75;2.10;;;;;;;24.10;50.86;97653.47;4364916;32;20361;-78
2023/07/28 06:15:44;;;;;;;3.90;1.90;;;;;;;24.42;49.94;97645.66;4363577;32;20107;-78
2023/07/28 06:18:11;;;;;;;4.40;1.75;;;;;;;25.16;48.40;97654.47;4364719;32;20163;-78
2023/07/28 06:20:42;;;;;;;5.43;2.00;;;;;;;24.90;48.71;97656.44;4364854;32;20087;-77
2023/07/28 06:23:09;;;;;;;4.37;2.28;;;;;;;24.82;49.15;97657.25;4364508;32;20091;-77
2023/07/28 06:25:38;;;;;;;5.50;2.10;;;;;;;25.16;48.11;97651.00;4364721;32;20586;-77
2023/07/28 06:39:07;;;;;;;3.50;1.95;;;;;;;23.90;51.23;97642.38;4515097;31;140698;-79
2023/07/28 06:41:34;;;;;;;4.10;2.03;;;;;;;23.90;51.23;97642.38;4520161;31;20159;-79
2023/07/28 06:44:02;;;;;;;5.05;2.03;;;;;;;23.17;53.15;97642.75;4517930;31;20151;-80
2023/07/28 06:46:30;;;;;;;5.00;2.00;;;;;;;22.69;54.01;97637.94;4519478;31;20115;-80
2023/07/28 06:48:57;;;;;;;5.65;2.17;;;;;;;22.67;53.00;97643.34;4517995;31;20068;-79
2023/07/28 06:51:24;;;;;;;4.85;2.10;;;;;;;22.64;54.19;97637.53;4522097;31;20134;-79
2023/07/28 06:53:51;;;;;;;4.70;1.98;;;;;;;22.90;54.65;97635.03;4514043;31;20162;-77
2023/07/28 06:56:18;;;;;;;4.80;2.03;;;;;;;23.08;53.14;97641.91;4513347;31;20064;-77
2023/07/28 06:58:45;;;;;;;3.03;1.62;;;;;;;23.83;51.54;97649.28;4519588;31;20250;-82
2023/07/28 07:01:26;;;;;;;4.60;1.90;;;;;;;23.94;50.95;97644.53;4517260;31;20096;-81
2023/07/28 07:03:53;;;;;;;3.95;1.90;;;;;;;24.45;49.75;97640.06;4524083;31;20066;-81
2023/07/28 07:06:36;;;;;;;4.18;1.92;;;;;;;25.12;48.59;97650.53;4529289;31;20057;-82
2023/07/28 07:09:03;;;;;;;4.00;1.83;;;;;;;24.78;46.91;97645.41;4529780;31;20076;-81
2023/07/28 07:11:31;;;;;;;4.57;2.05;;;;;;;25.11;47.33;97640.97;4529938;31;20072;-81
2023/07/28 07:13:58;;;;;;;4.60;1.98;;;;;;;25.30;46.01;97645.84;4529948;31;20067;-81
2023/07/28 07:16:25;;;;;;;3.67;1.80;;;;;;;25.20;47.38;97637.31;4529144;31;20075;-81
2023/07/28 07:18:52;;;;;;;4.05;1.80;;;;;;;25.88;45.29;97636.81;4529949;31;20152;-81
2023/07/28 07:21:19;;;;;;;7.28;2.20;;;;;;;25.85;45.68;97639.81;4529844;31;20111;-80
2023/07/28 07:23:46;;;;;;;4.85;2.08;;;;;;;26.00;45.71;97631.16;4529710;31;20067;-80
2023/07/28 07:26:15;;;;;;;6.60;2.10;;;;;;;25.91;45.25;97633.81;4529775;31;20060;-80
2023/07/28 07:28:42;;;;;;;9.55;2.35;;;;;;;25.91;45.02;97633.00;4529785;31;20073;-81
2023/07/28 07:31:15;;;;;;;37.90;7.30;;;;;;;26.08;45.37;97634.59;4529469;31;20109;-81
2023/07/28 07:33:42;;;;;;;231.82;48.70;;;;;;;26.26;44.93;97644.88;4529875;31;20057;-81
2023/07/28 07:36:21;;;;;;;133.80;36.28;;;;;;;26.43;44.58;97648.28;4529503;31;20076;-81
2023/07/28 07:38:51;;;;;;;140.88;27.13;;;;;;;26.32;44.19;97651.31;4524301;31;20129;-81
2023/07/28 07:41:21;;;;;;;7.80;2.20;;;;;;;26.47;44.19;97649.56;4519008;31;20119;-81
2023/07/28 07:43:49;;;;;;;4.95;2.00;;;;;;;26.13;44.25;97648.09;4519145;31;20112;-81
2023/07/28 07:46:21;;;;;;;4.07;1.90;;;;;;;26.39;44.10;97647.00;4518870;31;20053;-80
2023/07/28 07:48:48;;;;;;;4.87;2.10;;;;;;;26.36;43.59;97640.19;4519089;31;20120;-81
2023/07/28 07:51:15;;;;;;;3.80;2.00;;;;;;;26.74;42.42;97638.47;4518918;31;20068;-81
2023/07/28 07:53:42;;;;;;;5.22;1.92;;;;;;;26.60;44.52;97647.19;4519079;31;20088;-81
2023/07/28 07:56:16;;;;;;;3.35;1.80;;;;;;;27.06;42.19;97629.47;4519015;31;20060;-81
2023/07/28 07:58:43;;;;;;;3.95;1.80;;;;;;;27.51;44.03;97638.28;4518660;31;20079;-81
2023/07/28 08:01:10;;;;;;;4.10;2.10;;;;;;;26.80;42.31;97632.50;4518917;31;20096;-82
2023/07/28 08:03:37;;;;;;;4.57;2.00;;;;;;;26.13;43.25;97644.63;4518731;31;20067;-81
2023/07/28 08:06:17;;;;;;;4.62;1.90;;;;;;;26.10;44.57;97639.69;4518214;31;20078;-81
2023/07/28 08:08:45;;;;;;;5.35;2.10;;;;;;;25.76;44.81;97643.47;4518873;31;20068;-81
2023/07/28 08:11:12;;;;;;;5.22;2.12;;;;;;;25.64;47.00;97634.25;4518889;31;20068;-81
2023/07/28 08:13:39;;;;;;;5.05;2.10;;;;;;;25.60;46.58;97625.81;4518654;31;20057;-81
2023/07/28 08:16:07;;;;;;;4.25;1.87;;;;;;;25.62;46.71;97636.22;4518701;31;20092;-82
2023/07/28 08:18:34;;;;;;;5.22;2.08;;;;;;;25.71;47.16;97639.69;4518860;31;20068;-81
2023/07/28 08:21:01;;;;;;;6.25;1.95;;;;;;;25.91;45.24;97647.03;4518486;31;20088;-81
2023/07/28 08:23:28;;;;;;;5.15;1.98;;;;;;;26.40;44.66;97640.72;4518869;31;20074;-81
2023/07/28 08:25:57;;;;;;;6.25;2.00;;;;;;;26.88;43.96;97644.00;4518692;31;20100;-81
2023/07/28 08:28:24;;;;;;;4.18;1.87;;;;;;;26.78;43.86;97636.28;4518216;31;20072;-81
2023/07/28 08:30:57;;;;;;;4.55;1.70;;;;;;;26.57;44.31;97636.94;4518822;31;20075;-81
2023/07/28 08:33:25;;;;;;;5.35;2.00;;;;;;;26.96;44.00;97647.41;4518474;31;20061;-81
2023/07/28 08:35:53;;;;;;;5.87;1.80;;;;;;;27.05;43.24;97649.00;4518700;31;20064;-81
2023/07/28 08:38:20;;;;;;;2.87;1.60;;;;;;;26.96;44.62;97655.34;4518660;31;20076;-81
2023/07/28 08:40:47;;;;;;;4.60;2.00;;;;;;;26.93;42.31;97642.47;4518350;31;20100;-81
2023/07/28 08:43:14;;;;;;;4.97;2.03;;;;;;;27.13;42.43;97634.88;4518683;31;20100;-81
2023/07/28 08:45:40;;;;;;;3.65;1.77;;;;;;;27.35;42.44;97641.94;4518611;31;20069;-81
2023/07/28 08:48:08;;;;;;;6.18;1.90;;;;;;;27.64;41.99;97648.25;4518117;31;20135;-81
2023/07/28 08:50:36;;;;;;;2.87;1.70;;;;;;;27.93;40.46;97642.97;4517500;31;20064;-81
2023/07/28 08:53:03;;;;;;;4.30;1.80;;;;;;;27.91;42.14;97641.50;4518659;31;20086;-81
2023/07/28 08:55:30;;;;;;;2.72;1.70;;;;;;;27.88;40.74;97639.22;4518258;31;20086;-81
2023/07/28 08:58:14;;;;;;;2.62;1.60;;;;;;;27.56;40.81;97635.94;4518577;31;20119;-81
2023/07/28 09:00:40;;;;;;;3.25;1.67;;;;;;;27.49;41.96;97644.78;4518729;31;20083;-81
2023/07/28 09:03:11;;;;;;;2.90;1.50;;;;;;;27.54;41.13;97639.75;4518103;31;20057;-81
2023/07/28 09:05:40;;;;;;;3.87;1.75;;;;;;;28.05;42.37;97642.47;4518393;31;20056;-81
2023/07/28 09:08:07;;;;;;;3.50;1.70;;;;;;;27.95;42.00;97640.94;4518486;31;20115;-81
2023/07/28 09:10:46;;;;;;;3.85;1.83;;;;;;;28.15;42.40;97643.00;4517877;31;20108;-82
2023/07/28 09:13:13;;;;;;;3.78;1.90;;;;;;;28.43;42.74;97638.69;4517939;31;20068;-82
2023/07/28 09:15:45;;;;;;;3.17;1.80;;;;;;;28.35;41.14;97628.19;4517979;31;20056;-81
2023/07/28 09:18:14;;;;;;;2.87;1.60;;;;;;;28.10;42.10;97635.63;4518270;31;20123;-82
2023/07/28 09:20:41;;;;;;;5.32;1.87;;;;;;;27.77;41.51;97629.09;4518246;31;20113;-82
2023/07/28 09:23:09;;;;;;;4.68;1.70;;;;;;;27.62;43.12;97626.41;4518055;31;20092;-81
2023/07/28 09:25:38;;;;;;;4.20;2.00;;;;;;;27.58;42.82;97633.09;4518217;31;20096;-81
2023/07/28 09:28:05;;;;;;;4.50;2.00;;;;;;;27.64;44.27;97633.16;4517935;31;20072;-82
2023/07/28 09:30:49;;;;;;;3.95;1.80;;;;;;;27.99;44.02;97630.81;4517875;31;20064;-82
2023/07/28 09:33:30;;;;;;;5.97;1.80;;;;;;;28.31;41.95;97624.25;4518108;31;20060;-82
2023/07/28 09:36:07;;;;;;;5.00;1.80;;;;;;;28.34;43.42;97628.38;4518110;31;20056;-81
2023/07/28 09:38:42;;;;;;;5.40;1.98;;;;;;;27.33;43.75;97624.59;4517498;31;20097;-81
2023/07/28 09:41:11;;;;;;;6.28;2.50;;;;;;;26.94;44.95;97622.09;4518180;31;20100;-81
2023/07/28 09:43:39;;;;;;;5.18;2.00;;;;;;;27.28;45.82;97625.13;4517899;31;20089;-81
2023/07/28 09:46:39;;;;;;;4.55;2.30;;;;;;;27.69;45.00;97632.66;4517700;31;20056;-81
2023/07/28 09:49:10;;;;;;;5.25;2.15;;;;;;;27.71;44.94;97635.94;4517874;31;20056;-81
2023/07/28 09:51:38;;;;;;;5.32;2.15;;;;;;;27.38;48.04;97638.91;4517947;31;20069;-81
2023/07/28 09:54:08;;;;;;;5.47;1.98;;;;;;;27.46;45.31;97638.03;4517990;31;20069;-82
2023/07/28 09:56:36;;;;;;;6.00;2.00;;;;;;;27.83;45.11;97631.00;4517862;31;20080;-81
2023/07/28 09:59:11;;;;;;;4.03;1.80;;;;;;;28.05;44.76;97640.66;4517921;31;20072;-81
2023/07/28 10:01:39;;;;;;;3.97;1.80;;;;;;;28.37;42.83;97634.09;4517606;31;20077;-81
2023/07/28 10:04:06;;;;;;;4.78;1.90;;;;;;;28.35;41.88;97635.31;4517831;31;20060;-81
2023/07/28 10:06:37;;;;;;;5.15;2.22;;;;;;;27.90;43.21;97627.44;4517440;31;20094;-81
2023/07/28 10:09:05;;;;;;;6.47;1.80;;;;;;;27.99;43.73;97627.34;4517671;31;20080;-81
2023/07/28 10:11:32;;;;;;;4.15;1.83;;;;;;;28.29;43.94;97633.44;4517626;31;20111;-81
2023/07/28 10:13:59;;;;;;;4.03;1.83;;;;;;;28.51;44.14;97621.81;4517822;31;20060;-81
2023/07/28 10:16:53;;;;;;;6.12;2.20;;;;;;;28.85;44.05;97630.91;4517926;31;20108;-82
2023/07/28 10:19:21;;;;;;;4.57;2.00;;;;;;;28.58;43.32;97620.03;4517323;31;20101;-82
2023/07/28 10:21:48;;;;;;;3.33;1.70;;;;;;;28.27;45.00;97636.22;4516692;31;20093;-82
2023/07/28 10:24:15;;;;;;;5.85;2.10;;;;;;;28.48;43.55;97624.81;4517358;31;20074;-82
2023/07/28 10:26:42;;;;;;;5.57;2.20;;;;;;;28.47;42.94;97625.84;4517038;31;20074;-81
2023/07/28 10:29:15;;;;;;;5.90;2.10;;;;;;;28.15;43.81;97630.56;4517339;31;20087;-81
2023/07/28 10:31:52;;;;;;;5.37;2.05;;;;;;;28.29;44.50;97630.78;4517491;31;20061;-82
2023/07/28 10:34:21;;;;;;;3.90;1.87;;;;;;;28.11;44.72;97633.78;4517319;31;20052;-81
2023/07/28 10:36:59;;;;;;;5.53;2.10;;;;;;;28.23;44.13;97630.47;4517433;31;20080;-82
2023/07/28 10:39:26;;;;;;;7.47;2.50;;;;;;;28.41;43.63;97631.91;4517335;31;20142;-81
2023/07/28 10:42:03;;;;;;;6.30;2.00;;;;;;;28.50;43.34;97631.63;4517234;31;20068;-82
2023/07/28 10:44:30;;;;;;;5.90;1.90;;;;;;;28.31;44.45;97644.66;4517477;31;20052;-82
2023/07/28 10:46:57;;;;;;;5.12;1.98;;;;;;;28.30;43.79;97633.22;4515342;31;20078;-81
2023/07/28 10:49:31;;;;;;;3.58;1.70;;;;;;;28.34;43.82;97644.28;4506748;31;20120;-82
2023/07/28 10:51:58;;;;;;;6.12;1.87;;;;;;;28.83;42.18;97641.72;4507943;31;20135;-82
2023/07/28 10:54:25;;;;;;;5.10;2.00;;;;;;;28.89;43.66;97643.63;4508609;31;20069;-82
2023/07/28 10:56:52;;;;;;;6.28;2.30;;;;;;;29.08;42.38;97632.34;4508439;31;20053;-83
2023/07/28 10:59:19;;;;;;;4.12;1.90;;;;;;;29.69;41.38;97630.94;4510908;31;20131;-83
2023/07/28 11:01:47;;;;;;;4.47;1.85;;;;;;;29.70;41.74;97637.91;4507928;31;20080;-83
2023/07/28 11:04:18;;;;;;;4.82;2.10;;;;;;;29.35;42.54;97633.38;4505953;31;20076;-83
2023/07/28 11:06:50;;;;;;;5.10;1.98;;;;;;;29.62;41.84;97626.41;4508651;31;20076;-82
2023/07/28 11:09:19;;;;;;;4.32;2.00;;;;;;;29.53;43.11;97627.56;4508603;31;20064;-83
2023/07/28 11:11:46;;;;;;;3.45;2.05;;;;;;;29.53;42.28;97630.22;4506212;31;20108;-82
2023/07/28 11:14:15;;;;;;;4.30;2.20;;;;;;;29.35;43.29;97633.38;4506806;31;20092;-82
2023/07/28 11:16:44;;;;;;;4.22;2.00;;;;;;;29.33;42.34;97631.91;4508079;31;20052;-82
2023/07/28 11:19:17;;;;;;;5.85;2.10;;;;;;;29.39;44.06;97634.62;4510711;31;20072;-82
2023/07/28 11:21:44;;;;;;;4.03;2.10;;;;;;;29.37;43.15;97619.91;4510908;31;20365;-82
2023/07/28 11:24:11;;;;;;;4.78;1.95;;;;;;;29.35;43.07;97620.09;4511731;31;20089;-82
2023/07/28 11:26:40;;;;;;;4.53;2.10;;;;;;;29.26;45.73;97620.44;4511981;31;20072;-82
2023/07/28 11:29:07;;;;;;;3.55;2.00;;;;;;;29.56;45.33;97618.38;4509151;31;20118;-83
2023/07/28 11:31:34;;;;;;;4.80;2.10;;;;;;;29.97;43.04;97615.72;4512067;31;20100;-82
2023/07/28 11:34:02;;;;;;;6.10;2.37;;;;;;;29.95;44.28;97610.59;4513540;31;20061;-82
2023/07/28 11:36:32;;;;;;;3.62;1.92;;;;;;;30.34;42.14;97613.63;4517292;31;20057;-82
2023/07/28 11:39:00;;;;;;;5.05;2.03;;;;;;;30.64;43.36;97601.63;4514600;31;20112;-82
2023/07/28 11:41:28;;;;;;;3.80;1.70;;;;;;;30.52;42.12;97612.03;4515455;31;20111;-82
2023/07/28 11:43:55;;;;;;;4.47;2.00;;;;;;;30.61;43.05;97599.31;4515139;31;20057;-82
2023/07/28 11:46:39;;;;;;;6.28;1.90;;;;;;;31.01;39.13;97596.69;4513443;31;20052;-82
2023/07/28 11:49:15;;;;;;;6.80;1.90;;;;;;;30.52;39.06;97596.06;4512757;31;20103;-82
2023/07/28 11:51:44;;;;;;;4.83;2.00;;;;;;;30.49;39.89;97593.78;4506819;31;20083;-78